Time;durP1;ratioP1;P1;durP2;ratioP2;P2;SDS_P1;SDS_P2;PMS_P1;PMS_P2;Temp;Humidity;BMP_temperature;BMP_pressure;BME280_temperature;BME280_humidity;BME280_pressure;Samples;Min_cycle;Max_cycle;Signal;HPM_P1;HPM_P2
2022/08/01 00:01:41;;;;;;;3.92;2.55;;;;;;;24.27;47.77;99294.22;5075415;28;20028;-82
2022/08/01 00:04:07;;;;;;;3.42;2.60;;;;;;;24.52;47.00;99323.81;5084415;28;20479;-81
2022/08/01 00:06:32;;;;;;;4.40;2.75;;;;;;;24.32;47.55;99328.91;5070771;28;20064;-82
2022/08/01 00:08:58;;;;;;;3.88;2.78;;;;;;;24.14;47.82;99323.09;5070981;28;20521;-81
2022/08/01 00:11:23;;;;;;;4.82;3.03;;;;;;;24.20;47.81;99317.25;5084975;28;20043;-83
2022/08/01 00:13:49;;;;;;;6.28;3.58;;;;;;;24.21;47.54;99310.03;5073583;28;20086;-82
2022/08/01 00:16:15;;;;;;;4.80;3.08;;;;;;;24.20;47.59;99317.25;5082640;28;20468;-82
2022/08/01 00:18:41;;;;;;;4.82;3.50;;;;;;;24.08;47.74;99300.22;5083565;28;20563;-82
2022/08/01 00:21:06;;;;;;;3.58;3.05;;;;;;;24.05;47.54;99288.78;5092429;28;20032;-82
2022/08/01 00:23:32;;;;;;;4.78;3.42;;;;;;;24.21;47.30;99301.94;5092565;28;20497;-82
2022/08/01 00:25:58;;;;;;;3.58;2.70;;;;;;;24.08;47.25;99293.94;5091869;28;20028;-83
2022/08/01 00:28:24;;;;;;;3.55;2.97;;;;;;;24.28;47.10;99312.13;5075669;28;20518;-82
2022/08/01 00:30:49;;;;;;;4.47;3.08;;;;;;;24.16;47.01;99298.72;5082346;28;20032;-82
2022/08/01 00:33:14;;;;;;;3.15;2.38;;;;;;;24.44;46.69;99309.06;5071486;28;20028;-84
2022/08/01 00:35:40;;;;;;;3.85;2.55;;;;;;;24.23;46.81;99302.69;5071724;28;20426;-82
2022/08/01 00:38:05;;;;;;;5.15;3.83;;;;;;;24.31;46.36;99306.50;5083619;28;20081;-83
2022/08/01 00:40:31;;;;;;;3.25;2.30;;;;;;;24.37;46.47;99299.75;5091644;28;20169;-82
2022/08/01 00:42:56;;;;;;;4.65;3.55;;;;;;;24.44;46.01;99309.06;5077236;28;20035;-82
2022/08/01 00:45:22;;;;;;;3.13;2.40;;;;;;;24.34;46.38;99326.09;5071564;28;20051;-81
2022/08/01 00:47:47;;;;;;;3.33;2.70;;;;;;;24.37;46.48;99318.63;5071196;28;20033;-82
2022/08/01 00:50:13;;;;;;;4.35;3.25;;;;;;;24.43;46.54;99325.38;5075959;28;20024;-82
2022/08/01 00:52:40;;;;;;;3.55;3.00;;;;;;;24.31;46.55;99294.84;5071630;28;20024;-82
2022/08/01 00:55:06;;;;;;;3.97;2.63;;;;;;;24.21;46.40;99307.34;5071476;28;20515;-82
2022/08/01 00:57:32;;;;;;;4.20;2.97;;;;;;;24.25;46.78;99312.38;5071573;28;20028;-81
2022/08/01 00:59:57;;;;;;;4.13;3.10;;;;;;;24.11;46.60;99318.84;5071706;28;20552;-82
2022/08/01 01:02:23;;;;;;;5.38;3.60;;;;;;;24.18;46.25;99315.66;5070761;28;20037;-83
2022/08/01 01:04:48;;;;;;;3.65;2.85;;;;;;;24.07;46.27;99319.19;5072067;28;20126;-81
2022/08/01 01:07:21;;;;;;;5.70;3.75;;;;;;;24.13;46.58;99321.41;5071221;28;20430;-81
2022/08/01 01:10:04;;;;;;;5.70;3.20;;;;;;;24.06;46.22;99312.91;5070860;28;20032;-81
2022/08/01 01:12:38;;;;;;;4.57;3.17;;;;;;;23.89;46.71;99318.75;5089762;28;20055;-82
2022/08/01 01:15:18;;;;;;;3.58;3.03;;;;;;;23.95;46.68;99315.59;5088256;28;20032;-81
2022/08/01 01:18:01;;;;;;;4.05;2.88;;;;;;;23.60;47.43;99305.63;5081410;28;20551;-81
2022/08/01 01:20:33;;;;;;;4.68;3.03;;;;;;;23.76;47.06;99324.19;5071283;28;20028;-81
2022/08/01 01:23:10;;;;;;;2.95;2.63;;;;;;;23.66;47.16;99309.69;5070425;28;20058;-82
2022/08/01 01:25:36;;;;;;;5.70;4.22;;;;;;;23.73;47.37;99333.34;5082381;28;20036;-82
2022/08/01 01:28:22;;;;;;;6.07;3.75;;;;;;;23.57;47.25;99322.00;5086596;28;20547;-81
2022/08/01 01:30:53;;;;;;;4.72;3.65;;;;;;;23.47;47.61;99304.84;5091601;28;20028;-81
2022/08/01 01:33:20;;;;;;;4.75;3.35;;;;;;;23.45;47.47;99301.38;5091027;28;20025;-81
2022/08/01 01:35:49;;;;;;;5.03;3.88;;;;;;;23.35;47.76;99312.00;5079853;28;20032;-81
2022/08/01 01:38:21;;;;;;;7.97;4.28;;;;;;;23.44;47.61;99318.53;5075655;28;20025;-81
2022/08/01 01:40:50;;;;;;;5.50;3.88;;;;;;;23.22;48.24;99318.28;5070467;28;20131;-81
2022/08/01 01:43:18;;;;;;;5.05;3.17;;;;;;;23.21;47.92;99316.53;5070694;28;20049;-81
2022/08/01 01:45:46;;;;;;;4.60;3.17;;;;;;;23.21;48.12;99305.78;5070551;28;20056;-81
2022/08/01 01:48:18;;;;;;;2.60;2.20;;;;;;;23.15;48.38;99316.16;5071838;28;20056;-83
2022/08/01 01:50:46;;;;;;;3.65;2.72;;;;;;;23.04;48.39;99301.59;5078469;28;20075;-82
2022/08/01 01:53:15;;;;;;;2.97;2.42;;;;;;;23.10;48.46;99318.31;5091063;28;20032;-81
2022/08/01 01:55:43;;;;;;;4.70;3.53;;;;;;;22.90;48.57;99296.38;5090620;28;20051;-86
2022/08/01 01:58:11;;;;;;;5.38;3.55;;;;;;;23.01;48.88;99311.75;5087223;28;20115;-79
2022/08/01 02:00:38;;;;;;;4.72;3.15;;;;;;;22.77;49.37;99299.13;5070910;28;20037;-82
2022/08/01 02:03:07;;;;;;;3.13;2.45;;;;;;;22.84;49.36;99312.97;5089699;28;20118;-82
2022/08/01 02:05:35;;;;;;;4.13;2.92;;;;;;;22.94;49.19;99313.16;5090157;28;20028;-82
2022/08/01 02:08:03;;;;;;;3.42;2.38;;;;;;;22.85;49.58;99333.50;5089631;28;20064;-83
2022/08/01 02:10:31;;;;;;;4.18;2.90;;;;;;;22.58;49.70;99307.59;5070274;28;20123;-83
2022/08/01 02:13:03;;;;;;;2.70;2.20;;;;;;;22.83;49.30;99325.56;5070358;28;20024;-83
2022/08/01 02:15:32;;;;;;;3.88;2.60;;;;;;;22.90;49.52;99334.03;5081352;28;20024;-81
2022/08/01 02:18:01;;;;;;;4.63;3.42;;;;;;;22.83;49.69;99319.31;5090075;28;20080;-82
2022/08/01 02:20:29;;;;;;;5.03;2.88;;;;;;;22.88;49.45;99334.16;5079802;28;20033;-81
2022/08/01 02:23:06;;;;;;;3.60;2.75;;;;;;;22.84;49.63;99321.88;5081930;28;20070;-82
2022/08/01 02:25:38;;;;;;;4.22;3.08;;;;;;;23.02;49.00;99329.59;5090111;28;20042;-81
2022/08/01 02:28:35;;;;;;;4.57;2.80;;;;;;;23.08;48.57;99334.53;5090266;28;20032;-84
2022/08/01 02:31:04;;;;;;;5.10;2.75;;;;;;;22.98;48.88;99325.41;5066460;28;20060;-84
2022/08/01 02:33:36;;;;;;;5.45;3.45;;;;;;;23.14;48.59;99333.25;5081835;28;20038;-84
2022/08/01 02:36:03;;;;;;;5.05;2.65;;;;;;;22.93;48.73;99311.44;5094222;28;20032;-83
2022/08/01 02:38:32;;;;;;;3.47;2.58;;;;;;;23.06;48.67;99329.28;5093559;28;20114;-83
2022/08/01 02:41:03;;;;;;;3.90;2.67;;;;;;;23.05;48.32;99329.38;5094313;28;20059;-83
2022/08/01 02:43:31;;;;;;;3.38;2.50;;;;;;;23.05;48.54;99313.25;5094282;28;20040;-83
2022/08/01 02:46:02;;;;;;;3.40;2.42;;;;;;;22.98;48.56;99326.25;5078039;28;20112;-82
2022/08/01 02:48:33;;;;;;;6.70;2.85;;;;;;;23.03;48.25;99325.94;5073981;28;20505;-83
2022/08/01 02:51:01;;;;;;;5.25;2.45;;;;;;;22.96;48.01;99309.38;5074733;28;20052;-85
2022/08/01 02:53:31;;;;;;;3.53;2.17;;;;;;;23.06;47.89;99320.31;5075936;28;20094;-80
2022/08/01 02:55:58;;;;;;;4.47;2.70;;;;;;;22.98;48.07;99312.81;5073737;28;20020;-80
2022/08/01 02:58:25;;;;;;;4.20;3.28;;;;;;;22.91;48.41;99313.38;5073793;28;20062;-80
2022/08/01 03:00:51;;;;;;;3.17;2.72;;;;;;;22.87;48.04;99310.06;5078418;28;20063;-83
2022/08/01 03:03:18;;;;;;;2.95;1.80;;;;;;;22.82;47.92;99302.31;5091896;28;20028;-80
2022/08/01 03:05:45;;;;;;;3.00;2.45;;;;;;;22.77;48.33;99309.88;5080230;28;20029;-80
2022/08/01 03:08:13;;;;;;;3.40;2.33;;;;;;;22.74;48.16;99306.53;5073722;28;20029;-79
2022/08/01 03:10:42;;;;;;;3.90;2.22;;;;;;;22.78;48.10;99316.09;5073016;28;20119;-79
2022/08/01 03:13:10;;;;;;;5.03;3.30;;;;;;;22.92;47.89;99321.31;5073162;28;20028;-80
2022/08/01 03:15:38;;;;;;;2.92;2.00;;;;;;;22.81;47.67;99302.44;5077801;28;20583;-79
2022/08/01 03:18:06;;;;;;;5.85;3.88;;;;;;;22.75;47.63;99316.31;5092772;28;20115;-80
2022/08/01 03:20:35;;;;;;;4.72;2.90;;;;;;;22.60;47.68;99289.56;5079806;28;20169;-79
2022/08/01 03:23:05;;;;;;;2.50;1.85;;;;;;;22.73;47.40;99326.31;5093527;28;20043;-79
2022/08/01 03:25:32;;;;;;;2.35;2.03;;;;;;;22.47;47.42;99288.72;5092651;28;20028;-79
2022/08/01 03:28:01;;;;;;;2.28;1.77;;;;;;;22.58;47.68;99304.06;5090393;28;20024;-80
2022/08/01 03:30:27;;;;;;;2.75;1.50;;;;;;;22.54;47.91;99324.94;5074742;28;20494;-81
2022/08/01 03:32:54;;;;;;;2.63;1.75;;;;;;;22.56;47.56;99320.31;5087788;28;20035;-81
2022/08/01 03:35:23;;;;;;;3.67;2.08;;;;;;;22.52;47.42;99325.06;5071884;28;20039;-81
2022/08/01 03:37:53;;;;;;;3.25;1.80;;;;;;;22.22;47.80;99303.84;5072618;28;20078;-81
2022/08/01 03:40:25;;;;;;;3.25;2.13;;;;;;;22.46;47.77;99321.91;5072597;28;20132;-82
2022/08/01 03:42:59;;;;;;;2.63;1.88;;;;;;;22.49;47.53;99308.25;5086448;28;20040;-81
2022/08/01 03:45:36;;;;;;;4.10;2.10;;;;;;;22.60;46.85;99319.13;5082217;28;20040;-80
2022/08/01 03:48:08;;;;;;;2.80;1.98;;;;;;;22.55;47.30;99318.59;5087497;28;20043;-79
2022/08/01 03:50:36;;;;;;;2.47;1.65;;;;;;;22.62;47.09;99324.41;5090531;28;20041;-79
2022/08/01 03:53:04;;;;;;;2.78;2.03;;;;;;;22.53;47.45;99321.38;5084167;28;20106;-79
2022/08/01 03:55:31;;;;;;;3.13;2.33;;;;;;;22.62;47.36;99311.81;5090706;28;20562;-80
2022/08/01 03:57:59;;;;;;;3.67;2.63;;;;;;;22.59;47.43;99325.47;5092496;28;20026;-79
2022/08/01 04:00:26;;;;;;;2.35;1.60;;;;;;;22.59;47.27;99292.38;5089083;28;20467;-78
2022/08/01 04:02:52;;;;;;;3.65;2.15;;;;;;;22.78;47.26;99308.03;5091714;28;20404;-78
2022/08/01 04:05:18;;;;;;;2.08;1.40;;;;;;;22.91;47.64;99295.44;5081707;28;20035;-81
2022/08/01 04:07:54;;;;;;;4.43;2.38;;;;;;;22.91;47.18;99311.56;5085662;28;20422;-80
2022/08/01 04:10:20;;;;;;;3.47;2.03;;;;;;;22.92;47.20;99304.34;5089365;28;20114;-80
2022/08/01 04:12:45;;;;;;;3.03;1.95;;;;;;;22.89;47.42;99321.53;5072049;28;20362;-79
2022/08/01 04:15:11;;;;;;;3.30;2.10;;;;;;;22.87;47.53;99318.13;5071455;28;20043;-79
2022/08/01 04:17:36;;;;;;;3.45;2.17;;;;;;;23.02;47.12;99316.16;5082579;28;20081;-80
2022/08/01 04:20:02;;;;;;;2.35;1.75;;;;;;;23.00;47.48;99312.69;5090440;28;20445;-82
2022/08/01 04:22:30;;;;;;;2.10;1.73;;;;;;;23.01;47.34;99325.19;5089507;28;20050;-81
2022/08/01 04:24:58;;;;;;;2.40;1.60;;;;;;;22.97;47.15;99308.44;5084952;28;20020;-81
2022/08/01 04:27:29;;;;;;;3.13;1.83;;;;;;;23.10;46.93;99327.25;5078793;28;20039;-81
2022/08/01 04:29:58;;;;;;;2.30;1.60;;;;;;;23.28;45.93;99332.25;5090746;28;20467;-80
2022/08/01 04:32:27;;;;;;;3.70;1.85;;;;;;;23.30;45.64;99320.41;5071079;28;20029;-81
2022/08/01 04:34:56;;;;;;;2.08;1.50;;;;;;;23.17;45.47;99311.50;5070958;28;20031;-80
2022/08/01 04:37:23;;;;;;;3.72;2.35;;;;;;;23.42;45.29;99324.03;5070936;28;20109;-81
2022/08/01 04:39:51;;;;;;;4.88;2.42;;;;;;;23.50;44.69;99332.38;5071288;28;20037;-82
2022/08/01 04:42:17;;;;;;;5.38;2.55;;;;;;;23.50;44.87;99315.38;5071324;28;20039;-80
2022/08/01 04:44:42;;;;;;;2.45;1.85;;;;;;;23.80;44.38;99330.19;5071115;28;20021;-81
2022/08/01 04:47:08;;;;;;;2.53;1.73;;;;;;;23.88;43.74;99333.19;5070792;28;20032;-81
2022/08/01 04:49:35;;;;;;;2.60;1.98;;;;;;;24.03;43.24;99326.63;5070837;28;20093;-81
2022/08/01 04:52:00;;;;;;;3.33;1.40;;;;;;;23.92;43.07;99326.59;5069058;28;20028;-80
2022/08/01 04:54:27;;;;;;;2.90;1.92;;;;;;;24.07;43.43;99336.19;5070345;28;20033;-80
2022/08/01 04:57:00;;;;;;;1.73;1.30;;;;;;;24.13;42.97;99324.09;5069964;28;20502;-81
2022/08/01 04:59:41;;;;;;;1.60;1.13;;;;;;;24.11;42.10;99320.66;5070598;28;20082;-81
2022/08/01 05:02:13;;;;;;;3.25;2.15;;;;;;;24.02;41.67;99324.94;5070104;28;20058;-83
2022/08/01 05:04:40;;;;;;;2.75;1.75;;;;;;;24.38;42.06;99328.44;5070476;28;20071;-82
2022/08/01 05:07:06;;;;;;;6.10;1.80;;;;;;;24.11;41.53;99317.94;5069502;28;20134;-81
2022/08/01 05:09:33;;;;;;;1.98;1.45;;;;;;;24.28;41.17;99311.25;5070857;28;20082;-80
2022/08/01 05:12:01;;;;;;;2.10;1.13;;;;;;;24.32;40.64;99323.50;5070765;28;20079;-80
2022/08/01 05:14:28;;;;;;;24.60;2.42;;;;;;;24.46;40.76;99311.66;5070713;28;20106;-80
2022/08/01 05:16:53;;;;;;;1.70;1.35;;;;;;;24.46;40.06;99282.84;5070410;28;20025;-81
2022/08/01 05:19:21;;;;;;;1.52;1.20;;;;;;;24.65;39.38;99306.56;5070546;28;20089;-80
2022/08/01 05:21:46;;;;;;;3.35;1.58;;;;;;;24.79;39.09;99286.56;5070752;28;20028;-80
2022/08/01 05:24:12;;;;;;;3.22;1.15;;;;;;;25.02;38.99;99300.00;5070612;28;20047;-80
2022/08/01 05:26:38;;;;;;;2.47;0.85;;;;;;;24.95;38.75;99299.66;5070492;28;20028;-80
2022/08/01 05:29:04;;;;;;;3.50;1.63;;;;;;;25.05;39.31;99298.91;5070647;28;20032;-80
2022/08/01 05:31:30;;;;;;;1.35;1.08;;;;;;;25.14;38.40;99312.50;5070021;28;20036;-80
2022/08/01 05:33:55;;;;;;;2.95;1.65;;;;;;;25.20;38.54;99317.41;5070804;28;20545;-80
2022/08/01 05:36:21;;;;;;;1.42;1.10;;;;;;;25.12;38.41;99311.78;5070585;28;20115;-81
2022/08/01 05:38:46;;;;;;;2.15;1.20;;;;;;;25.31;37.20;99315.72;5069066;28;20045;-80
2022/08/01 05:41:11;;;;;;;2.33;1.13;;;;;;;25.11;36.88;99320.84;5070092;28;20052;-81
2022/08/01 05:43:37;;;;;;;2.65;1.67;;;;;;;25.35;36.52;99319.88;5070873;28;20062;-80
2022/08/01 05:46:03;;;;;;;3.42;1.88;;;;;;;25.30;36.00;99316.69;5069938;28;20025;-80
2022/08/01 05:48:28;;;;;;;2.53;1.83;;;;;;;25.50;35.92;99299.69;5070606;28;20094;-80
2022/08/01 05:50:54;;;;;;;2.50;1.20;;;;;;;25.66;35.63;99317.31;5070373;28;20044;-80
2022/08/01 05:53:20;;;;;;;5.30;1.15;;;;;;;25.71;35.68;99315.94;5070165;28;20029;-80
2022/08/01 05:55:45;;;;;;;1.90;1.20;;;;;;;25.81;34.60;99324.13;5070481;28;20032;-82
2022/08/01 05:58:11;;;;;;;1.98;1.42;;;;;;;25.81;34.52;99326.84;5070428;28;20029;-80
2022/08/01 06:00:36;;;;;;;1.88;1.05;;;;;;;26.09;34.99;99322.66;5069920;28;20561;-81
2022/08/01 06:03:02;;;;;;;1.90;1.55;;;;;;;26.27;34.88;99322.06;5070127;28;20078;-81
2022/08/01 06:05:28;;;;;;;1.63;1.10;;;;;;;26.50;35.24;99320.06;5070524;28;20454;-80
2022/08/01 06:07:53;;;;;;;1.67;1.40;;;;;;;26.33;34.33;99282.84;5071937;28;20068;-80
2022/08/01 06:10:19;;;;;;;2.22;1.50;;;;;;;26.60;34.27;99293.06;5074373;28;20119;-81
2022/08/01 06:12:45;;;;;;;1.52;1.10;;;;;;;26.89;34.29;99311.28;5074103;28;20032;-80
2022/08/01 06:15:10;;;;;;;1.40;1.00;;;;;;;27.03;33.09;99304.66;5073871;28;20021;-81
2022/08/01 06:17:36;;;;;;;3.20;1.30;;;;;;;27.05;32.50;99294.53;5074047;28;20051;-80
2022/08/01 06:20:02;;;;;;;1.80;1.25;;;;;;;27.09;31.46;99309.50;5073783;28;20059;-80
2022/08/01 06:22:28;;;;;;;1.67;1.15;;;;;;;27.28;32.63;99304.16;5073898;28;20024;-87
2022/08/01 06:24:53;;;;;;;1.13;0.90;;;;;;;27.41;31.27;99305.78;5074105;28;20036;-81
2022/08/01 06:27:19;;;;;;;1.50;0.85;;;;;;;26.88;31.11;99283.41;5073636;28;20040;-81
2022/08/01 06:29:44;;;;;;;0.95;0.70;;;;;;;27.18;30.75;99292.44;5073693;28;20028;-83
2022/08/01 06:32:10;;;;;;;2.50;1.10;;;;;;;27.47;30.83;99289.81;5073548;28;20083;-80
2022/08/01 06:34:35;;;;;;;1.33;0.75;;;;;;;27.74;31.31;99309.06;5073783;28;20406;-80
2022/08/01 06:37:01;;;;;;;1.63;0.90;;;;;;;27.49;31.04;99289.66;5073775;28;20028;-81
2022/08/01 06:39:27;;;;;;;2.28;1.63;;;;;;;27.65;30.69;99291.78;5073590;28;20391;-81
2022/08/01 06:41:52;;;;;;;2.40;1.42;;;;;;;27.64;30.11;99295.53;5073312;28;20056;-81
2022/08/01 06:44:18;;;;;;;2.00;1.15;;;;;;;27.77;29.53;99289.81;5073379;28;20032;-82
2022/08/01 06:46:43;;;;;;;2.05;1.10;;;;;;;27.87;28.12;99291.50;5073327;28;20024;-81
2022/08/01 06:49:09;;;;;;;0.98;0.80;;;;;;;27.88;29.29;99292.34;5073835;28;20029;-81
2022/08/01 06:51:34;;;;;;;1.70;1.13;;;;;;;27.84;28.89;99293.66;5073522;28;20354;-79
2022/08/01 06:54:00;;;;;;;2.35;1.58;;;;;;;27.90;29.12;99293.09;5073606;28;20029;-86
2022/08/01 06:56:25;;;;;;;0.75;0.75;;;;;;;28.17;28.34;99286.94;5073504;28;20028;-80
2022/08/01 06:58:51;;;;;;;2.25;0.57;;;;;;;27.91;27.77;99275.81;5073270;28;20032;-80
2022/08/01 07:01:16;;;;;;;2.55;0.80;;;;;;;28.27;28.24;99278.78;5072593;28;20040;-80
2022/08/01 07:03:42;;;;;;;2.70;1.27;;;;;;;27.96;28.72;99297.09;5073176;28;20042;-80
2022/08/01 07:06:07;;;;;;;1.50;0.95;;;;;;;27.87;28.91;99283.38;5073271;28;20024;-80
2022/08/01 07:08:33;;;;;;;1.00;0.70;;;;;;;28.29;29.61;99286.78;5073002;28;20043;-81
2022/08/01 07:10:59;;;;;;;2.22;1.00;;;;;;;28.44;28.58;99265.44;5073548;28;20398;-80
2022/08/01 07:13:26;;;;;;;2.78;1.20;;;;;;;28.31;28.59;99274.75;5073014;28;20460;-80
2022/08/01 07:15:52;;;;;;;1.95;1.38;;;;;;;28.97;27.96;99291.13;5073094;28;20375;-80
2022/08/01 07:18:18;;;;;;;2.15;1.42;;;;;;;28.83;29.36;99289.75;5072953;28;20321;-80
2022/08/01 07:20:45;;;;;;;0.55;0.52;;;;;;;29.14;28.87;99279.44;5072141;28;20517;-80
2022/08/01 07:23:12;;;;;;;15.70;1.45;;;;;;;29.16;28.22;99290.97;5072833;28;20056;-80
2022/08/01 07:25:37;;;;;;;2.53;1.08;;;;;;;28.87;28.43;99264.00;5072735;28;20105;-80
2022/08/01 07:28:03;;;;;;;0.75;0.70;;;;;;;28.93;28.47;99271.53;5072470;28;20557;-81
2022/08/01 07:30:28;;;;;;;1.23;1.10;;;;;;;28.92;28.75;99262.56;5072933;28;20033;-80
2022/08/01 07:32:54;;;;;;;1.98;1.15;;;;;;;28.85;28.35;99269.59;5072431;28;20503;-81
2022/08/01 07:35:19;;;;;;;2.33;0.85;;;;;;;28.71;29.11;99264.66;5072371;28;20115;-80
2022/08/01 07:37:45;;;;;;;1.80;1.05;;;;;;;28.73;28.47;99249.94;5072549;28;20024;-80
2022/08/01 07:40:11;;;;;;;1.17;0.90;;;;;;;28.86;28.17;99257.72;5072320;28;20040;-81
2022/08/01 07:42:36;;;;;;;3.55;0.75;;;;;;;29.00;28.51;99275.38;5071975;28;20162;-83
2022/08/01 07:45:02;;;;;;;1.20;0.93;;;;;;;29.32;28.09;99271.34;5072509;28;20459;-80
2022/08/01 07:47:27;;;;;;;0.95;0.85;;;;;;;29.32;27.76;99246.03;5072265;28;20024;-80
2022/08/01 07:50:00;;;;;;;1.10;0.90;;;;;;;29.28;28.98;99242.78;5072371;28;20029;-80
2022/08/01 07:52:26;;;;;;;1.67;0.85;;;;;;;29.43;28.72;99256.69;5072434;28;20611;-79
2022/08/01 07:54:52;;;;;;;1.27;0.90;;;;;;;29.50;28.30;99254.19;5072019;28;20029;-81
2022/08/01 07:57:18;;;;;;;2.25;1.20;;;;;;;29.47;27.62;99230.91;5072031;28;20425;-81
2022/08/01 07:59:43;;;;;;;1.73;1.08;;;;;;;29.60;27.62;99238.69;5072196;28;20032;-81
2022/08/01 08:02:09;;;;;;;1.27;0.80;;;;;;;29.42;27.40;99241.38;5071674;28;20032;-81
2022/08/01 08:04:34;;;;;;;1.98;0.88;;;;;;;29.36;27.88;99226.56;5072483;28;20387;-81
2022/08/01 08:07:00;;;;;;;2.90;0.95;;;;;;;29.84;29.71;99234.47;5072288;28;20024;-80
2022/08/01 08:09:26;;;;;;;8.27;1.88;;;;;;;29.67;27.17;99230.75;5071662;28;20033;-80
2022/08/01 08:11:51;;;;;;;1.80;0.80;;;;;;;29.45;26.76;99239.19;5071662;28;20430;-82
2022/08/01 08:14:17;;;;;;;1.02;0.85;;;;;;;28.94;28.00;99216.25;5071599;28;20051;-81
2022/08/01 08:16:44;;;;;;;1.02;0.70;;;;;;;29.23;27.89;99237.81;5071736;28;20383;-81
2022/08/01 08:19:10;;;;;;;0.80;0.70;;;;;;;29.49;27.58;99230.75;5071745;28;20077;-81
2022/08/01 08:21:37;;;;;;;2.22;1.15;;;;;;;29.60;27.72;99225.09;5071782;28;20541;-81
2022/08/01 08:24:21;;;;;;;2.50;1.27;;;;;;;29.77;26.93;99234.22;5071793;28;20032;-81
2022/08/01 08:26:53;;;;;;;1.20;0.75;;;;;;;29.69;28.25;99243.16;5071406;28;20093;-81
2022/08/01 08:29:19;;;;;;;3.08;0.70;;;;;;;29.82;27.27;99221.88;5071772;28;20032;-80
2022/08/01 08:31:45;;;;;;;0.52;0.50;;;;;;;30.09;27.52;99220.03;5070837;28;20089;-81
2022/08/01 08:34:10;;;;;;;0.60;0.60;;;;;;;30.28;25.93;99224.41;5071516;28;20116;-81
2022/08/01 08:36:37;;;;;;;0.80;0.70;;;;;;;29.82;27.08;99249.06;5071454;28;20025;-80
2022/08/01 08:39:03;;;;;;;1.50;1.00;;;;;;;29.78;27.72;99208.72;5071076;28;20031;-81
2022/08/01 08:41:30;;;;;;;0.57;0.57;;;;;;;30.00;28.71;99221.00;5071104;28;20098;-81
2022/08/01 08:43:58;;;;;;;2.75;1.88;;;;;;;30.20;26.98;99199.00;5070896;28;20020;-81
2022/08/01 08:46:25;;;;;;;1.27;0.85;;;;;;;30.26;26.82;99226.44;5070856;28;20028;-81
2022/08/01 08:48:51;;;;;;;1.58;1.15;;;;;;;29.96;26.05;99227.75;5071214;28;20032;-81
2022/08/01 08:51:18;;;;;;;0.88;0.77;;;;;;;29.89;26.45;99210.38;5071078;28;20032;-82
2022/08/01 08:53:45;;;;;;;1.10;0.82;;;;;;;30.05;26.43;99204.22;5070743;28;20402;-82
2022/08/01 08:56:15;;;;;;;0.95;0.70;;;;;;;29.90;26.35;99195.78;5071276;28;20032;-82
2022/08/01 08:58:46;;;;;;;2.17;0.95;;;;;;;30.40;27.53;99196.94;5071067;28;20454;-81
2022/08/01 09:01:12;;;;;;;4.55;1.02;;;;;;;30.46;26.42;99204.44;5070636;28;20432;-82
2022/08/01 09:03:39;;;;;;;1.25;0.90;;;;;;;30.06;27.17;99217.66;5070878;28;20039;-82
2022/08/01 09:06:05;;;;;;;1.45;0.90;;;;;;;29.89;27.32;99210.38;5070639;28;20033;-83
2022/08/01 09:08:31;;;;;;;0.98;0.90;;;;;;;30.21;26.45;99187.13;5070890;28;20036;-82
2022/08/01 09:10:56;;;;;;;1.08;0.75;;;;;;;30.53;27.76;99214.50;5070626;28;20528;-82
2022/08/01 09:13:22;;;;;;;0.75;0.75;;;;;;;30.33;26.91;99213.88;5070915;28;20426;-83
2022/08/01 09:15:56;;;;;;;2.13;0.90;;;;;;;30.49;27.37;99205.00;5070821;28;20490;-84
2022/08/01 09:18:43;;;;;;;1.30;0.70;;;;;;;30.12;27.73;99211.56;5070444;28;20446;-83
2022/08/01 09:21:16;;;;;;;6.38;1.75;;;;;;;30.10;27.06;99205.41;5073136;28;20520;-82
2022/08/01 09:23:50;;;;;;;2.10;0.75;;;;;;;30.27;28.25;99200.91;5073352;28;20029;-83
2022/08/01 09:26:19;;;;;;;1.65;1.25;;;;;;;30.68;27.09;99170.38;5070636;28;20032;-82
2022/08/01 09:28:46;;;;;;;0.63;0.63;;;;;;;30.62;27.66;99176.47;5070309;28;20502;-83
2022/08/01 09:31:18;;;;;;;1.05;0.57;;;;;;;30.68;26.03;99187.53;5089349;28;20139;-85
2022/08/01 09:33:51;;;;;;;1.02;0.60;;;;;;;30.63;27.13;99181.75;5091014;28;20031;-81
2022/08/01 09:36:17;;;;;;;1.65;0.73;;;;;;;30.59;27.55;99188.53;5086451;28;20055;-83
2022/08/01 09:38:43;;;;;;;0.80;0.70;;;;;;;30.47;27.65;99168.06;5086867;28;20024;-84
2022/08/01 09:41:11;;;;;;;0.98;0.65;;;;;;;30.66;26.95;99194.16;5091053;28;20059;-83
2022/08/01 09:43:37;;;;;;;3.08;1.60;;;;;;;30.32;27.26;99181.41;5083329;28;20040;-82
2022/08/01 09:46:20;;;;;;;0.85;0.68;;;;;;;30.14;27.18;99184.22;5088798;28;20032;-83
2022/08/01 09:49:03;;;;;;;0.70;0.70;;;;;;;30.14;27.22;99176.06;5091275;28;20106;-82
2022/08/01 09:51:37;;;;;;;1.58;0.63;;;;;;;30.15;27.51;99175.03;5090736;28;20513;-83
2022/08/01 09:54:05;;;;;;;4.85;0.85;;;;;;;30.45;27.45;99170.97;5090803;28;20510;-82
2022/08/01 09:56:39;;;;;;;0.60;0.50;;;;;;;30.55;26.92;99176.25;5090836;28;20031;-83
2022/08/01 09:59:04;;;;;;;2.60;0.80;;;;;;;30.13;28.46;99155.31;5091117;28;20111;-82
2022/08/01 10:01:45;;;;;;;1.40;0.70;;;;;;;30.76;27.54;99177.72;5083157;28;20169;-83
2022/08/01 10:04:17;;;;;;;0.70;0.60;;;;;;;30.91;27.52;99161.56;5075811;28;20503;-83
2022/08/01 10:06:45;;;;;;;1.80;0.85;;;;;;;30.84;27.16;99145.06;5089972;28;20032;-85
2022/08/01 10:09:13;;;;;;;1.02;0.93;;;;;;;30.61;27.42;99161.16;5091028;28;20504;-81
2022/08/01 10:11:42;;;;;;;0.55;0.52;;;;;;;30.64;27.50;99155.38;5091035;28;20036;-83
2022/08/01 10:14:08;;;;;;;0.85;0.70;;;;;;;31.10;27.22;99180.34;5090992;28;20030;-83
2022/08/01 10:16:35;;;;;;;0.77;0.70;;;;;;;30.67;27.08;99165.94;5090762;28;20032;-83
2022/08/01 10:19:02;;;;;;;8.88;2.05;;;;;;;30.86;29.03;99154.75;5090957;28;20031;-82
2022/08/01 10:21:31;;;;;;;5.40;1.55;;;;;;;31.37;27.20;99178.31;5091047;28;20658;-84
2022/08/01 10:23:58;;;;;;;1.35;0.90;;;;;;;31.00;28.02;99158.75;5089487;28;20042;-84
2022/08/01 10:26:26;;;;;;;0.85;0.70;;;;;;;31.06;26.65;99152.63;5090735;28;20031;-84
2022/08/01 10:28:53;;;;;;;0.95;0.75;;;;;;;31.18;27.02;99180.34;5090768;28;20152;-84
2022/08/01 10:31:19;;;;;;;3.20;1.00;;;;;;;30.87;27.37;99178.22;5090407;28;20035;-84
2022/08/01 10:33:45;;;;;;;1.85;1.13;;;;;;;30.76;27.92;99140.44;5090454;28;20028;-82
2022/08/01 10:36:11;;;;;;;0.95;0.60;;;;;;;31.17;26.79;99146.00;5079708;28;20490;-82
2022/08/01 10:38:37;;;;;;;1.10;0.70;;;;;;;31.62;27.59;99162.00;5070573;28;20035;-84
2022/08/01 10:41:04;;;;;;;0.55;0.50;;;;;;;31.31;27.11;99162.66;5074264;28;20052;-83
2022/08/01 10:43:30;;;;;;;0.93;0.65;;;;;;;31.36;26.72;99173.91;5079294;28;20032;-82
2022/08/01 10:45:56;;;;;;;1.60;0.93;;;;;;;31.45;28.24;99169.31;5074574;28;20025;-84
2022/08/01 10:48:34;;;;;;;0.77;0.63;;;;;;;31.24;26.12;99165.22;5070110;28;20040;-83
2022/08/01 10:51:03;;;;;;;1.15;0.70;;;;;;;31.20;26.54;99164.72;5072846;28;20031;-82
2022/08/01 10:53:29;;;;;;;1.13;0.63;;;;;;;30.94;26.47;99150.34;5081440;28;20501;-82
2022/08/01 10:56:00;;;;;;;5.85;1.05;;;;;;;31.05;28.21;99163.69;5082231;28;20063;-80
2022/08/01 10:58:36;;;;;;;0.77;0.70;;;;;;;31.30;28.72;99167.28;5094094;28;20024;-80
2022/08/01 11:01:24;;;;;;;0.70;0.50;;;;;;;31.20;26.63;99162.00;5093630;28;20379;-84
2022/08/01 11:04:12;;;;;;;0.75;0.75;;;;;;;30.98;26.85;99144.41;5094016;28;20081;-83
2022/08/01 11:06:48;;;;;;;1.27;0.75;;;;;;;31.17;27.63;99167.78;5093814;28;20039;-81
2022/08/01 11:09:13;;;;;;;3.47;1.25;;;;;;;31.18;26.70;99161.28;5093724;28;20058;-82
2022/08/01 11:11:59;;;;;;;0.80;0.75;;;;;;;31.21;28.29;99141.03;5093662;28;20071;-83
2022/08/01 11:14:25;;;;;;;2.58;0.80;;;;;;;31.80;27.21;99156.38;5093757;28;20032;-80
2022/08/01 11:16:51;;;;;;;1.52;0.77;;;;;;;31.87;27.14;99141.88;5093413;28;20111;-82
2022/08/01 11:19:17;;;;;;;0.77;0.63;;;;;;;31.38;27.58;99128.28;5093801;28;20444;-84
2022/08/01 11:21:59;;;;;;;1.00;0.80;;;;;;;31.53;27.43;99153.81;5092025;28;20106;-82
2022/08/01 11:24:46;;;;;;;0.63;0.63;;;;;;;31.45;27.94;99148.38;5093588;28;20028;-80
2022/08/01 11:27:17;;;;;;;4.38;1.40;;;;;;;31.63;30.00;99148.22;5084462;28;20111;-81
2022/08/01 11:29:43;;;;;;;1.92;1.08;;;;;;;31.84;27.79;99136.78;5073406;28;20078;-81
2022/08/01 11:32:26;;;;;;;0.98;0.70;;;;;;;31.68;27.22;99134.91;5071514;28;20460;-82
2022/08/01 11:34:54;;;;;;;0.80;0.73;;;;;;;31.87;26.54;99139.16;5073169;28;20035;-83
2022/08/01 11:37:26;;;;;;;0.80;0.77;;;;;;;31.73;26.98;99137.09;5073404;28;20035;-81
2022/08/01 11:40:15;;;;;;;1.08;0.73;;;;;;;31.79;26.35;99150.03;5072583;28;20036;-82